sensor_id;sensor_type;location;lat;lon;timestamp;temperature;humidity
38118;DHT22;23928;47.562;7.508;2024-02-26T00:00:04;7.50;99.90
38118;DHT22;23928;47.562;7.508;2024-02-26T00:02:37;7.40;99.90
38118;DHT22;23928;47.562;7.508;2024-02-26T00:05:06;7.30;99.90
38118;DHT22;23928;47.562;7.508;2024-02-26T00:07:32;7.30;99.90
38118;DHT22;23928;47.562;7.508;2024-02-26T00:09:58;7.20;99.90
38118;DHT22;23928;47.562;7.508;2024-02-26T00:12:24;7.30;99.90
38118;DHT22;23928;47.562;7.508;2024-02-26T00:14:50;7.30;99.90
38118;DHT22;23928;47.562;7.508;2024-02-26T00:17:16;7.40;99.90
38118;DHT22;23928;47.562;7.508;2024-02-26T00:19:41;7.30;99.90
38118;DHT22;23928;47.562;7.508;2024-02-26T00:22:07;7.30;99.90
38118;DHT22;23928;47.562;7.508;2024-02-26T00:24:33;7.40;99.90
38118;DHT22;23928;47.562;7.508;2024-02-26T00:26:59;7.40;99.90
38118;DHT22;23928;47.562;7.508;2024-02-26T00:29:25;7.40;99.90
38118;DHT22;23928;47.562;7.508;2024-02-26T00:31:51;7.30;99.90
38118;DHT22;23928;47.562;7.508;2024-02-26T00:34:16;7.20;99.90
38118;DHT22;23928;47.562;7.508;2024-02-26T00:36:42;7.20;99.90
38118;DHT22;23928;47.562;7.508;2024-02-26T00:39:08;7.20;99.90
38118;DHT22;23928;47.562;7.508;2024-02-26T00:41:38;7.30;99.90
38118;DHT22;23928;47.562;7.508;2024-02-26T00:44:04;7.40;99.90
38118;DHT22;23928;47.562;7.508;2024-02-26T00:46:29;7.40;99.90
38118;DHT22;23928;47.562;7.508;2024-02-26T00:48:55;7.30;99.90
38118;DHT22;23928;47.562;7.508;2024-02-26T00:51:20;7.20;99.90
38118;DHT22;23928;47.562;7.508;2024-02-26T00:53:46;7.10;99.90
38118;DHT22;23928;47.562;7.508;2024-02-26T00:56:11;7.10;99.90
38118;DHT22;23928;47.562;7.508;2024-02-26T00:58:37;7.10;99.90
38118;DHT22;23928;47.562;7.508;2024-02-26T01:01:03;7.00;99.90
38118;DHT22;23928;47.562;7.508;2024-02-26T01:03:28;7.00;99.90
38118;DHT22;23928;47.562;7.508;2024-02-26T01:05:54;7.10;99.90
38118;DHT22;23928;47.562;7.508;2024-02-26T01:08:19;7.10;99.90
38118;DHT22;23928;47.562;7.508;2024-02-26T01:10:45;7.30;99.90
38118;DHT22;23928;47.562;7.508;2024-02-26T01:13:11;7.40;99.90
38118;DHT22;23928;47.562;7.508;2024-02-26T01:15:37;7.20;99.90
38118;DHT22;23928;47.562;7.508;2024-02-26T01:18:02;7.40;99.90
38118;DHT22;23928;47.562;7.508;2024-02-26T01:20:28;7.30;99.90
38118;DHT22;23928;47.562;7.508;2024-02-26T01:22:54;7.20;99.90
38118;DHT22;23928;47.562;7.508;2024-02-26T01:25:19;7.10;99.90
38118;DHT22;23928;47.562;7.508;2024-02-26T01:27:45;7.30;99.90
38118;DHT22;23928;47.562;7.508;2024-02-26T01:30:11;7.30;99.90
38118;DHT22;23928;47.562;7.508;2024-02-26T01:32:37;7.20;99.90
38118;DHT22;23928;47.562;7.508;2024-02-26T01:35:03;7.20;99.90
38118;DHT22;23928;47.562;7.508;2024-02-26T01:37:29;7.10;99.90
38118;DHT22;23928;47.562;7.508;2024-02-26T01:39:57;7.00;99.90
38118;DHT22;23928;47.562;7.508;2024-02-26T01:42:23;7.00;99.90
38118;DHT22;23928;47.562;7.508;2024-02-26T01:44:48;7.10;99.90
38118;DHT22;23928;47.562;7.508;2024-02-26T01:47:14;7.00;99.90
38118;DHT22;23928;47.562;7.508;2024-02-26T01:49:40;6.90;99.90
38118;DHT22;23928;47.562;7.508;2024-02-26T01:52:06;7.00;99.90
38118;DHT22;23928;47.562;7.508;2024-02-26T01:54:35;6.90;99.90
38118;DHT22;23928;47.562;7.508;2024-02-26T01:57:02;6.80;99.90
38118;DHT22;23928;47.562;7.508;2024-02-26T01:59:28;6.60;99.90
38118;DHT22;23928;47.562;7.508;2024-02-26T02:01:55;6.70;99.90
38118;DHT22;23928;47.562;7.508;2024-02-26T02:04:23;6.70;99.90
38118;DHT22;23928;47.562;7.508;2024-02-26T02:06:50;6.60;99.90
38118;DHT22;23928;47.562;7.508;2024-02-26T02:09:15;6.70;99.90
38118;DHT22;23928;47.562;7.508;2024-02-26T02:11:41;6.90;99.90
38118;DHT22;23928;47.562;7.508;2024-02-26T02:14:07;7.00;99.90
38118;DHT22;23928;47.562;7.508;2024-02-26T02:16:33;6.90;99.90
38118;DHT22;23928;47.562;7.508;2024-02-26T02:18:59;7.00;99.90
38118;DHT22;23928;47.562;7.508;2024-02-26T02:21:25;7.00;99.90
38118;DHT22;23928;47.562;7.508;2024-02-26T02:23:50;6.90;99.90
38118;DHT22;23928;47.562;7.508;2024-02-26T02:26:16;6.80;99.90
38118;DHT22;23928;47.562;7.508;2024-02-26T02:28:42;7.00;99.90
38118;DHT22;23928;47.562;7.508;2024-02-26T02:31:08;7.10;99.90
38118;DHT22;23928;47.562;7.508;2024-02-26T02:33:34;7.00;99.90
38118;DHT22;23928;47.562;7.508;2024-02-26T02:36:00;7.10;99.90
38118;DHT22;23928;47.562;7.508;2024-02-26T02:38:26;7.00;99.90
38118;DHT22;23928;47.562;7.508;2024-02-26T02:40:52;7.00;99.90
38118;DHT22;23928;47.562;7.508;2024-02-26T02:43:18;7.00;99.90
38118;DHT22;23928;47.562;7.508;2024-02-26T02:45:43;7.00;99.90
38118;DHT22;23928;47.562;7.508;2024-02-26T02:48:11;7.00;99.90
38118;DHT22;23928;47.562;7.508;2024-02-26T02:50:36;6.90;99.90
38118;DHT22;23928;47.562;7.508;2024-02-26T02:53:02;7.00;99.90
38118;DHT22;23928;47.562;7.508;2024-02-26T02:55:27;7.00;99.90
38118;DHT22;23928;47.562;7.508;2024-02-26T02:57:53;7.00;99.90
38118;DHT22;23928;47.562;7.508;2024-02-26T03:00:19;7.00;99.90
38118;DHT22;23928;47.562;7.508;2024-02-26T03:02:45;7.00;99.90
38118;DHT22;23928;47.562;7.508;2024-02-26T03:05:11;7.00;99.90
38118;DHT22;23928;47.562;7.508;2024-02-26T03:07:37;7.00;99.90
38118;DHT22;23928;47.562;7.508;2024-02-26T03:10:03;6.90;99.90
38118;DHT22;23928;47.562;7.508;2024-02-26T03:12:30;6.90;99.90
38118;DHT22;23928;47.562;7.508;2024-02-26T03:14:56;7.10;99.90
38118;DHT22;23928;47.562;7.508;2024-02-26T03:17:22;7.10;99.90
38118;DHT22;23928;47.562;7.508;2024-02-26T03:19:49;7.10;99.90
38118;DHT22;23928;47.562;7.508;2024-02-26T03:22:18;7.00;99.90
38118;DHT22;23928;47.562;7.508;2024-02-26T03:24:44;6.90;99.90
38118;DHT22;23928;47.562;7.508;2024-02-26T03:27:10;7.00;99.90
38118;DHT22;23928;47.562;7.508;2024-02-26T03:29:37;6.80;99.90
38118;DHT22;23928;47.562;7.508;2024-02-26T03:32:02;6.70;99.90
38118;DHT22;23928;47.562;7.508;2024-02-26T03:34:28;6.80;99.90
38118;DHT22;23928;47.562;7.508;2024-02-26T03:36:54;6.80;99.90
38118;DHT22;23928;47.562;7.508;2024-02-26T03:39:19;6.70;99.90
38118;DHT22;23928;47.562;7.508;2024-02-26T03:41:45;6.90;99.90
38118;DHT22;23928;47.562;7.508;2024-02-26T03:44:10;6.90;99.90
38118;DHT22;23928;47.562;7.508;2024-02-26T03:46:36;6.90;99.90
38118;DHT22;23928;47.562;7.508;2024-02-26T03:49:02;6.80;99.90
38118;DHT22;23928;47.562;7.508;2024-02-26T03:51:27;6.80;99.90
38118;DHT22;23928;47.562;7.508;2024-02-26T03:53:57;6.80;99.90
38118;DHT22;23928;47.562;7.508;2024-02-26T03:56:23;6.90;99.90
38118;DHT22;23928;47.562;7.508;2024-02-26T03:58:49;6.90;99.90
38118;DHT22;23928;47.562;7.508;2024-02-26T04:01:14;6.80;99.90
38118;DHT22;23928;47.562;7.508;2024-02-26T04:03:41;6.80;99.90
38118;DHT22;23928;47.562;7.508;2024-02-26T04:06:11;6.90;99.90
38118;DHT22;23928;47.562;7.508;2024-02-26T04:08:37;6.90;99.90
38118;DHT22;23928;47.562;7.508;2024-02-26T04:11:03;6.80;99.90
38118;DHT22;23928;47.562;7.508;2024-02-26T04:13:33;7.00;99.90
38118;DHT22;23928;47.562;7.508;2024-02-26T04:15:59;6.90;99.90
38118;DHT22;23928;47.562;7.508;2024-02-26T04:18:27;6.70;99.90
38118;DHT22;23928;47.562;7.508;2024-02-26T04:20:52;6.70;99.90
38118;DHT22;23928;47.562;7.508;2024-02-26T04:23:18;6.80;99.90
38118;DHT22;23928;47.562;7.508;2024-02-26T04:25:44;6.70;99.90
38118;DHT22;23928;47.562;7.508;2024-02-26T04:28:10;6.80;99.90
38118;DHT22;23928;47.562;7.508;2024-02-26T04:30:36;6.90;99.90
38118;DHT22;23928;47.562;7.508;2024-02-26T04:33:01;7.00;99.90
38118;DHT22;23928;47.562;7.508;2024-02-26T04:35:27;6.70;99.90
38118;DHT22;23928;47.562;7.508;2024-02-26T04:37:53;6.60;99.90
38118;DHT22;23928;47.562;7.508;2024-02-26T04:40:19;6.40;99.90
38118;DHT22;23928;47.562;7.508;2024-02-26T04:42:44;6.40;99.90
38118;DHT22;23928;47.562;7.508;2024-02-26T04:45:10;6.40;99.90
38118;DHT22;23928;47.562;7.508;2024-02-26T04:47:35;6.50;99.90
38118;DHT22;23928;47.562;7.508;2024-02-26T04:50:01;6.30;99.90
38118;DHT22;23928;47.562;7.508;2024-02-26T04:52:27;6.40;99.90
38118;DHT22;23928;47.562;7.508;2024-02-26T04:54:52;6.50;99.90
38118;DHT22;23928;47.562;7.508;2024-02-26T04:57:18;6.50;99.90
38118;DHT22;23928;47.562;7.508;2024-02-26T04:59:44;6.60;99.90
38118;DHT22;23928;47.562;7.508;2024-02-26T05:02:11;6.60;99.90
38118;DHT22;23928;47.562;7.508;2024-02-26T05:04:37;6.60;99.90
38118;DHT22;23928;47.562;7.508;2024-02-26T05:07:03;6.70;99.90
38118;DHT22;23928;47.562;7.508;2024-02-26T05:09:29;6.70;99.90
38118;DHT22;23928;47.562;7.508;2024-02-26T05:11:54;6.70;99.90
38118;DHT22;23928;47.562;7.508;2024-02-26T05:14:20;6.70;99.90
38118;DHT22;23928;47.562;7.508;2024-02-26T05:16:47;6.70;99.90
38118;DHT22;23928;47.562;7.508;2024-02-26T05:19:12;6.70;99.90
38118;DHT22;23928;47.562;7.508;2024-02-26T05:21:38;6.80;99.90
38118;DHT22;23928;47.562;7.508;2024-02-26T05:24:03;6.80;99.90
38118;DHT22;23928;47.562;7.508;2024-02-26T05:26:29;6.90;99.90
38118;DHT22;23928;47.562;7.508;2024-02-26T05:28:55;6.70;99.90
38118;DHT22;23928;47.562;7.508;2024-02-26T05:31:25;6.70;99.90
38118;DHT22;23928;47.562;7.508;2024-02-26T05:33:51;6.70;99.90
38118;DHT22;23928;47.562;7.508;2024-02-26T05:36:20;6.80;99.90
38118;DHT22;23928;47.562;7.508;2024-02-26T05:38:47;6.70;99.90
38118;DHT22;23928;47.562;7.508;2024-02-26T05:41:17;6.70;99.90
38118;DHT22;23928;47.562;7.508;2024-02-26T05:43:51;6.80;99.90
38118;DHT22;23928;47.562;7.508;2024-02-26T05:46:21;6.80;99.90
38118;DHT22;23928;47.562;7.508;2024-02-26T05:48:47;6.80;99.90
38118;DHT22;23928;47.562;7.508;2024-02-26T05:51:14;6.90;99.90
38118;DHT22;23928;47.562;7.508;2024-02-26T05:53:40;6.70;99.90
38118;DHT22;23928;47.562;7.508;2024-02-26T05:56:06;6.70;99.90
38118;DHT22;23928;47.562;7.508;2024-02-26T05:58:32;6.90;99.90
38118;DHT22;23928;47.562;7.508;2024-02-26T06:00:57;6.80;99.90
38118;DHT22;23928;47.562;7.508;2024-02-26T06:03:23;6.80;99.90
38118;DHT22;23928;47.562;7.508;2024-02-26T06:05:49;6.80;99.90
38118;DHT22;23928;47.562;7.508;2024-02-26T06:08:14;6.60;99.90
38118;DHT22;23928;47.562;7.508;2024-02-26T06:10:40;6.60;99.90
38118;DHT22;23928;47.562;7.508;2024-02-26T06:13:05;6.50;99.90
38118;DHT22;23928;47.562;7.508;2024-02-26T06:15:31;6.60;99.90
38118;DHT22;23928;47.562;7.508;2024-02-26T06:17:57;6.60;99.90
38118;DHT22;23928;47.562;7.508;2024-02-26T06:20:22;6.50;99.90
38118;DHT22;23928;47.562;7.508;2024-02-26T06:22:48;6.50;99.90
38118;DHT22;23928;47.562;7.508;2024-02-26T06:25:13;6.40;99.90
38118;DHT22;23928;47.562;7.508;2024-02-26T06:27:39;6.50;99.90
38118;DHT22;23928;47.562;7.508;2024-02-26T06:30:05;6.40;99.90
38118;DHT22;23928;47.562;7.508;2024-02-26T06:32:31;6.40;99.90
38118;DHT22;23928;47.562;7.508;2024-02-26T06:34:56;6.50;99.90
38118;DHT22;23928;47.562;7.508;2024-02-26T06:37:22;6.60;99.90
38118;DHT22;23928;47.562;7.508;2024-02-26T06:39:48;6.50;99.90
38118;DHT22;23928;47.562;7.508;2024-02-26T06:42:13;6.70;99.90
38118;DHT22;23928;47.562;7.508;2024-02-26T06:44:39;6.50;99.90
38118;DHT22;23928;47.562;7.508;2024-02-26T06:47:05;6.60;99.90
38118;DHT22;23928;47.562;7.508;2024-02-26T06:49:31;6.60;99.90
38118;DHT22;23928;47.562;7.508;2024-02-26T06:51:57;6.60;99.90
38118;DHT22;23928;47.562;7.508;2024-02-26T06:54:22;6.60;99.90
38118;DHT22;23928;47.562;7.508;2024-02-26T06:56:48;6.60;99.90
38118;DHT22;23928;47.562;7.508;2024-02-26T06:59:13;6.70;99.90
38118;DHT22;23928;47.562;7.508;2024-02-26T07:01:42;6.40;99.90
38118;DHT22;23928;47.562;7.508;2024-02-26T07:04:07;6.50;99.90
38118;DHT22;23928;47.562;7.508;2024-02-26T07:06:33;6.50;99.90
38118;DHT22;23928;47.562;7.508;2024-02-26T07:08:59;6.30;99.90
38118;DHT22;23928;47.562;7.508;2024-02-26T07:11:24;6.30;99.90
38118;DHT22;23928;47.562;7.508;2024-02-26T07:13:50;6.40;99.90
38118;DHT22;23928;47.562;7.508;2024-02-26T07:16:16;6.40;99.90
38118;DHT22;23928;47.562;7.508;2024-02-26T07:18:41;6.40;99.90
38118;DHT22;23928;47.562;7.508;2024-02-26T07:21:09;6.50;99.90
38118;DHT22;23928;47.562;7.508;2024-02-26T07:23:34;6.50;99.90
38118;DHT22;23928;47.562;7.508;2024-02-26T07:26:00;6.70;99.90
38118;DHT22;23928;47.562;7.508;2024-02-26T07:28:26;6.80;99.90
38118;DHT22;23928;47.562;7.508;2024-02-26T07:30:51;6.90;99.90
38118;DHT22;23928;47.562;7.508;2024-02-26T07:33:17;7.00;99.90
38118;DHT22;23928;47.562;7.508;2024-02-26T07:35:43;7.20;99.90
38118;DHT22;23928;47.562;7.508;2024-02-26T07:38:08;7.20;99.90
38118;DHT22;23928;47.562;7.508;2024-02-26T07:40:34;7.20;99.90
38118;DHT22;23928;47.562;7.508;2024-02-26T07:42:59;7.40;99.90
38118;DHT22;23928;47.562;7.508;2024-02-26T07:45:25;7.60;99.90
38118;DHT22;23928;47.562;7.508;2024-02-26T07:47:51;7.70;99.90
38118;DHT22;23928;47.562;7.508;2024-02-26T07:50:17;7.90;99.90
38118;DHT22;23928;47.562;7.508;2024-02-26T07:52:44;8.00;99.90
38118;DHT22;23928;47.562;7.508;2024-02-26T07:55:10;7.90;99.90
38118;DHT22;23928;47.562;7.508;2024-02-26T07:57:35;7.80;99.90
38118;DHT22;23928;47.562;7.508;2024-02-26T08:00:02;7.80;99.90
38118;DHT22;23928;47.562;7.508;2024-02-26T08:02:28;7.70;99.90
38118;DHT22;23928;47.562;7.508;2024-02-26T08:04:54;7.70;99.90
38118;DHT22;23928;47.562;7.508;2024-02-26T08:07:20;7.70;99.90
38118;DHT22;23928;47.562;7.508;2024-02-26T08:09:47;8.00;99.90
38118;DHT22;23928;47.562;7.508;2024-02-26T08:12:12;7.90;99.90
38118;DHT22;23928;47.562;7.508;2024-02-26T08:14:38;8.00;99.90
38118;DHT22;23928;47.562;7.508;2024-02-26T08:17:03;7.90;99.90
38118;DHT22;23928;47.562;7.508;2024-02-26T08:19:29;7.90;99.90
38118;DHT22;23928;47.562;7.508;2024-02-26T08:21:55;8.10;99.90
38118;DHT22;23928;47.562;7.508;2024-02-26T08:24:20;8.00;99.90
38118;DHT22;23928;47.562;7.508;2024-02-26T08:26:46;7.90;99.90
38118;DHT22;23928;47.562;7.508;2024-02-26T08:29:12;7.90;99.90
38118;DHT22;23928;47.562;7.508;2024-02-26T08:31:37;8.00;99.90
38118;DHT22;23928;47.562;7.508;2024-02-26T08:34:03;8.00;99.90
38118;DHT22;23928;47.562;7.508;2024-02-26T08:36:31;8.10;99.90
38118;DHT22;23928;47.562;7.508;2024-02-26T08:38:57;8.10;99.90
38118;DHT22;23928;47.562;7.508;2024-02-26T08:41:23;8.00;99.90
38118;DHT22;23928;47.562;7.508;2024-02-26T08:43:48;8.00;99.90
38118;DHT22;23928;47.562;7.508;2024-02-26T08:46:14;8.00;99.90
38118;DHT22;23928;47.562;7.508;2024-02-26T08:48:40;8.10;99.90
38118;DHT22;23928;47.562;7.508;2024-02-26T08:51:06;8.10;99.90
38118;DHT22;23928;47.562;7.508;2024-02-26T08:53:32;8.20;99.90
38118;DHT22;23928;47.562;7.508;2024-02-26T08:55:58;8.30;99.90
38118;DHT22;23928;47.562;7.508;2024-02-26T08:58:24;8.40;99.90
38118;DHT22;23928;47.562;7.508;2024-02-26T09:00:49;8.40;99.90
38118;DHT22;23928;47.562;7.508;2024-02-26T09:03:16;8.40;99.90
38118;DHT22;23928;47.562;7.508;2024-02-26T09:05:41;8.40;99.90
38118;DHT22;23928;47.562;7.508;2024-02-26T09:08:07;8.40;99.90
38118;DHT22;23928;47.562;7.508;2024-02-26T09:10:33;8.40;99.90
38118;DHT22;23928;47.562;7.508;2024-02-26T09:12:58;8.40;99.90
38118;DHT22;23928;47.562;7.508;2024-02-26T09:15:24;8.50;99.90
38118;DHT22;23928;47.562;7.508;2024-02-26T09:17:49;8.50;99.90
38118;DHT22;23928;47.562;7.508;2024-02-26T09:20:16;8.50;99.90
38118;DHT22;23928;47.562;7.508;2024-02-26T09:22:45;8.50;99.90
38118;DHT22;23928;47.562;7.508;2024-02-26T09:25:11;8.70;99.90
38118;DHT22;23928;47.562;7.508;2024-02-26T09:27:37;8.70;99.90
38118;DHT22;23928;47.562;7.508;2024-02-26T09:30:02;8.80;99.90
38118;DHT22;23928;47.562;7.508;2024-02-26T09:32:28;8.80;99.90
38118;DHT22;23928;47.562;7.508;2024-02-26T09:34:54;8.90;99.90
38118;DHT22;23928;47.562;7.508;2024-02-26T09:37:19;9.10;99.90
38118;DHT22;23928;47.562;7.508;2024-02-26T09:39:45;9.10;99.90
38118;DHT22;23928;47.562;7.508;2024-02-26T09:42:13;9.30;99.90
38118;DHT22;23928;47.562;7.508;2024-02-26T09:44:40;9.60;99.90
38118;DHT22;23928;47.562;7.508;2024-02-26T09:47:11;9.60;99.90
38118;DHT22;23928;47.562;7.508;2024-02-26T09:49:39;9.50;99.90
38118;DHT22;23928;47.562;7.508;2024-02-26T09:52:05;9.60;99.90
38118;DHT22;23928;47.562;7.508;2024-02-26T09:54:32;9.80;99.90
38118;DHT22;23928;47.562;7.508;2024-02-26T09:57:03;9.80;99.90
38118;DHT22;23928;47.562;7.508;2024-02-26T09:59:41;9.90;99.90
38118;DHT22;23928;47.562;7.508;2024-02-26T10:02:12;10.20;99.90
38118;DHT22;23928;47.562;7.508;2024-02-26T10:04:42;10.10;99.90
38118;DHT22;23928;47.562;7.508;2024-02-26T10:07:12;10.30;99.90
38118;DHT22;23928;47.562;7.508;2024-02-26T10:09:39;10.50;99.90
38118;DHT22;23928;47.562;7.508;2024-02-26T10:12:07;10.70;99.90
38118;DHT22;23928;47.562;7.508;2024-02-26T10:14:34;10.80;99.90
38118;DHT22;23928;47.562;7.508;2024-02-26T10:16:59;11.10;99.90
38118;DHT22;23928;47.562;7.508;2024-02-26T10:19:32;10.90;99.90
38118;DHT22;23928;47.562;7.508;2024-02-26T10:21:58;10.60;99.90
38118;DHT22;23928;47.562;7.508;2024-02-26T10:24:30;10.50;99.90
38118;DHT22;23928;47.562;7.508;2024-02-26T10:26:56;10.40;99.90
38118;DHT22;23928;47.562;7.508;2024-02-26T10:29:24;10.50;99.90
38118;DHT22;23928;47.562;7.508;2024-02-26T10:31:53;10.40;99.90
38118;DHT22;23928;47.562;7.508;2024-02-26T10:34:19;10.30;99.90
38118;DHT22;23928;47.562;7.508;2024-02-26T10:36:45;10.40;99.90
38118;DHT22;23928;47.562;7.508;2024-02-26T10:39:12;10.60;99.90
38118;DHT22;23928;47.562;7.508;2024-02-26T10:41:41;10.70;99.90
38118;DHT22;23928;47.562;7.508;2024-02-26T10:44:11;10.70;99.90
38118;DHT22;23928;47.562;7.508;2024-02-26T10:46:38;10.80;99.90
38118;DHT22;23928;47.562;7.508;2024-02-26T10:49:04;11.10;99.90
38118;DHT22;23928;47.562;7.508;2024-02-26T10:51:31;11.20;99.90
38118;DHT22;23928;47.562;7.508;2024-02-26T10:54:00;11.10;99.90
38118;DHT22;23928;47.562;7.508;2024-02-26T10:56:34;11.20;99.90
38118;DHT22;23928;47.562;7.508;2024-02-26T10:59:00;11.10;99.90
38118;DHT22;23928;47.562;7.508;2024-02-26T11:01:27;11.10;99.90
38118;DHT22;23928;47.562;7.508;2024-02-26T11:03:58;11.30;99.90
38118;DHT22;23928;47.562;7.508;2024-02-26T11:06:27;11.50;99.90
38118;DHT22;23928;47.562;7.508;2024-02-26T11:08:54;11.40;99.90
38118;DHT22;23928;47.562;7.508;2024-02-26T11:11:20;11.40;99.90
38118;DHT22;23928;47.562;7.508;2024-02-26T11:13:48;11.40;99.90
38118;DHT22;23928;47.562;7.508;2024-02-26T11:16:20;11.30;99.90
38118;DHT22;23928;47.562;7.508;2024-02-26T11:18:47;11.40;99.90
38118;DHT22;23928;47.562;7.508;2024-02-26T11:21:16;11.40;99.90
38118;DHT22;23928;47.562;7.508;2024-02-26T11:23:45;11.40;99.90
38118;DHT22;23928;47.562;7.508;2024-02-26T11:26:11;11.40;99.90
38118;DHT22;23928;47.562;7.508;2024-02-26T11:28:38;11.60;99.90
38118;DHT22;23928;47.562;7.508;2024-02-26T11:31:05;11.50;99.90
38118;DHT22;23928;47.562;7.508;2024-02-26T11:33:33;11.50;99.90
38118;DHT22;23928;47.562;7.508;2024-02-26T11:36:08;11.50;99.90
38118;DHT22;23928;47.562;7.508;2024-02-26T11:38:34;11.70;99.90
38118;DHT22;23928;47.562;7.508;2024-02-26T11:41:00;12.00;99.90
38118;DHT22;23928;47.562;7.508;2024-02-26T11:43:52;12.00;99.90
38118;DHT22;23928;47.562;7.508;2024-02-26T11:46:26;11.70;99.90
38118;DHT22;23928;47.562;7.508;2024-02-26T11:48:55;11.90;99.90
38118;DHT22;23928;47.562;7.508;2024-02-26T11:51:41;12.00;99.90
38118;DHT22;23928;47.562;7.508;2024-02-26T11:54:07;12.00;99.90
38118;DHT22;23928;47.562;7.508;2024-02-26T11:56:34;12.20;99.90
38118;DHT22;23928;47.562;7.508;2024-02-26T11:59:10;12.50;99.90
38118;DHT22;23928;47.562;7.508;2024-02-26T12:04:35;12.40;99.90
38118;DHT22;23928;47.562;7.508;2024-02-26T12:07:03;12.50;99.90
38118;DHT22;23928;47.562;7.508;2024-02-26T12:09:41;12.40;99.90
38118;DHT22;23928;47.562;7.508;2024-02-26T12:12:09;12.40;99.90
38118;DHT22;23928;47.562;7.508;2024-02-26T12:17:04;12.40;99.90
38118;DHT22;23928;47.562;7.508;2024-02-26T12:19:35;12.20;99.90
38118;DHT22;23928;47.562;7.508;2024-02-26T12:22:02;12.30;99.90
38118;DHT22;23928;47.562;7.508;2024-02-26T12:24:27;12.20;99.90
38118;DHT22;23928;47.562;7.508;2024-02-26T12:26:53;12.20;99.90
38118;DHT22;23928;47.562;7.508;2024-02-26T12:29:18;12.30;99.90
38118;DHT22;23928;47.562;7.508;2024-02-26T12:31:44;12.40;99.90
38118;DHT22;23928;47.562;7.508;2024-02-26T12:34:10;12.30;99.90
38118;DHT22;23928;47.562;7.508;2024-02-26T12:36:36;12.40;99.90
38118;DHT22;23928;47.562;7.508;2024-02-26T12:39:02;12.40;99.90
38118;DHT22;23928;47.562;7.508;2024-02-26T12:41:31;12.30;99.90
38118;DHT22;23928;47.562;7.508;2024-02-26T12:43:57;12.30;99.90
38118;DHT22;23928;47.562;7.508;2024-02-26T12:46:23;12.20;99.90
38118;DHT22;23928;47.562;7.508;2024-02-26T12:48:49;12.30;99.90
38118;DHT22;23928;47.562;7.508;2024-02-26T12:51:16;12.40;99.90
38118;DHT22;23928;47.562;7.508;2024-02-26T12:53:42;12.40;99.90
38118;DHT22;23928;47.562;7.508;2024-02-26T12:56:09;12.40;99.90
38118;DHT22;23928;47.562;7.508;2024-02-26T12:58:36;12.60;99.90
38118;DHT22;23928;47.562;7.508;2024-02-26T13:01:03;12.40;99.90
38118;DHT22;23928;47.562;7.508;2024-02-26T13:03:29;12.30;99.90
38118;DHT22;23928;47.562;7.508;2024-02-26T13:05:55;12.50;99.90
38118;DHT22;23928;47.562;7.508;2024-02-26T13:08:21;12.50;99.90
38118;DHT22;23928;47.562;7.508;2024-02-26T13:10:47;12.50;99.90
38118;DHT22;23928;47.562;7.508;2024-02-26T13:13:17;12.60;99.90
38118;DHT22;23928;47.562;7.508;2024-02-26T13:15:44;12.70;99.90
38118;DHT22;23928;47.562;7.508;2024-02-26T13:18:15;12.60;99.90
38118;DHT22;23928;47.562;7.508;2024-02-26T13:20:41;12.80;99.90
38118;DHT22;23928;47.562;7.508;2024-02-26T13:23:09;12.80;99.90
38118;DHT22;23928;47.562;7.508;2024-02-26T13:25:36;12.70;99.90
38118;DHT22;23928;47.562;7.508;2024-02-26T13:28:24;12.60;99.90
38118;DHT22;23928;47.562;7.508;2024-02-26T13:30:54;12.50;99.90
38118;DHT22;23928;47.562;7.508;2024-02-26T13:33:23;12.60;99.90
38118;DHT22;23928;47.562;7.508;2024-02-26T13:35:49;12.50;99.90
38118;DHT22;23928;47.562;7.508;2024-02-26T13:38:15;12.40;99.90
38118;DHT22;23928;47.562;7.508;2024-02-26T13:40:41;12.40;99.90
38118;DHT22;23928;47.562;7.508;2024-02-26T13:43:07;12.40;99.90
38118;DHT22;23928;47.562;7.508;2024-02-26T13:45:36;12.40;99.90
38118;DHT22;23928;47.562;7.508;2024-02-26T13:48:05;12.60;99.90
38118;DHT22;23928;47.562;7.508;2024-02-26T13:50:31;12.60;99.90
38118;DHT22;23928;47.562;7.508;2024-02-26T13:52:57;12.60;99.90
38118;DHT22;23928;47.562;7.508;2024-02-26T13:55:25;12.60;99.90
38118;DHT22;23928;47.562;7.508;2024-02-26T13:57:52;12.60;99.90
38118;DHT22;23928;47.562;7.508;2024-02-26T14:00:19;12.60;99.90
38118;DHT22;23928;47.562;7.508;2024-02-26T14:02:45;12.50;99.90
38118;DHT22;23928;47.562;7.508;2024-02-26T14:05:10;12.50;99.90
38118;DHT22;23928;47.562;7.508;2024-02-26T14:07:36;12.60;99.90
38118;DHT22;23928;47.562;7.508;2024-02-26T14:10:02;12.50;99.90
38118;DHT22;23928;47.562;7.508;2024-02-26T14:12:28;12.40;99.90
38118;DHT22;23928;47.562;7.508;2024-02-26T14:14:53;12.50;99.90
38118;DHT22;23928;47.562;7.508;2024-02-26T14:17:23;12.50;99.90
38118;DHT22;23928;47.562;7.508;2024-02-26T14:19:49;12.60;99.90
38118;DHT22;23928;47.562;7.508;2024-02-26T14:22:15;12.60;99.90
38118;DHT22;23928;47.562;7.508;2024-02-26T14:24:41;12.50;99.90
38118;DHT22;23928;47.562;7.508;2024-02-26T14:27:12;12.50;99.90
38118;DHT22;23928;47.562;7.508;2024-02-26T14:29:42;12.60;99.90
38118;DHT22;23928;47.562;7.508;2024-02-26T14:32:09;12.70;99.90
38118;DHT22;23928;47.562;7.508;2024-02-26T14:34:34;12.50;99.90
38118;DHT22;23928;47.562;7.508;2024-02-26T14:37:00;12.50;99.90
38118;DHT22;23928;47.562;7.508;2024-02-26T14:39:25;12.50;99.90
38118;DHT22;23928;47.562;7.508;2024-02-26T14:41:52;12.50;99.90
38118;DHT22;23928;47.562;7.508;2024-02-26T14:44:17;12.50;99.90
38118;DHT22;23928;47.562;7.508;2024-02-26T14:46:43;12.60;99.90
38118;DHT22;23928;47.562;7.508;2024-02-26T14:49:09;12.60;99.90
38118;DHT22;23928;47.562;7.508;2024-02-26T14:51:34;12.60;99.90
38118;DHT22;23928;47.562;7.508;2024-02-26T14:54:00;12.60;99.90
38118;DHT22;23928;47.562;7.508;2024-02-26T14:56:27;12.50;99.90
38118;DHT22;23928;47.562;7.508;2024-02-26T14:58:53;12.50;99.90
38118;DHT22;23928;47.562;7.508;2024-02-26T15:01:18;12.50;99.90
38118;DHT22;23928;47.562;7.508;2024-02-26T15:03:44;12.50;99.90
38118;DHT22;23928;47.562;7.508;2024-02-26T15:06:09;12.50;99.90
38118;DHT22;23928;47.562;7.508;2024-02-26T15:08:35;12.40;99.90
38118;DHT22;23928;47.562;7.508;2024-02-26T15:11:01;12.30;99.90
38118;DHT22;23928;47.562;7.508;2024-02-26T15:13:27;12.30;99.90
38118;DHT22;23928;47.562;7.508;2024-02-26T15:15:52;12.30;99.90
38118;DHT22;23928;47.562;7.508;2024-02-26T15:18:18;12.20;99.90
38118;DHT22;23928;47.562;7.508;2024-02-26T15:20:44;12.20;99.90
38118;DHT22;23928;47.562;7.508;2024-02-26T15:23:11;12.30;99.90
38118;DHT22;23928;47.562;7.508;2024-02-26T15:25:37;12.30;99.90
38118;DHT22;23928;47.562;7.508;2024-02-26T15:28:03;12.30;99.90
38118;DHT22;23928;47.562;7.508;2024-02-26T15:30:28;12.30;99.90
38118;DHT22;23928;47.562;7.508;2024-02-26T15:32:55;12.30;99.90
38118;DHT22;23928;47.562;7.508;2024-02-26T15:35:21;12.20;99.90
38118;DHT22;23928;47.562;7.508;2024-02-26T15:37:47;12.30;99.90
38118;DHT22;23928;47.562;7.508;2024-02-26T15:40:12;12.20;99.90